Tuesday, January 22, 2019, 9:01 PM GMT
Back to Local

CYHZ, Halifax International Airport

Location: , , Canada Lat: 44.883
Local Time: 9:01 PM GMT (21:01 GMT) Lon: -63.5
Time Zone: GMT Elev: 475 ft

Show me the last for .
Show Decoded

2019-01-22 20:00 METAR CYHZ 222000Z 31021G29KT 15SM -SHSN BKN023 M11/M14 A2995 RMK SC7 CVCTV CLD
                 EMBD SLP153 =
2019-01-22 19:00 METAR CYHZ 221900Z 32019G28KT 4SM -SN FEW022 OVC030 M11/M15 A2991 RMK SC2SC6
                 SLP139 =
2019-01-22 18:00 METAR CYHZ 221800Z 30021G26KT 6SM -SN OVC032 M11/M15 A2987 RMK SC8 SLP127 =
2019-01-22 17:00 METAR CYHZ 221700Z 32019KT 5SM -SN OVC029 M12/M15 A2985 RMK SC8 SLP120 =
2019-01-22 16:00 METAR CYHZ 221600Z 31015G29KT 6SM -SN OVC025 M12/M16 A2983 RMK SC8 SLP113 =
2019-01-22 15:52 METAR CYHZ 221552Z 32023G28KT 6SM -SN OVC031 M12/M16 A2983 RMK SC8 SLP112 =
2019-01-22 15:00 METAR CYHZ 221500Z 32020KT 1 1/2SM -SN OVC015 M12/M15 A2981 RMK SC8 SLP107 =
2019-01-22 14:00 METAR CYHZ 221400Z 32019KT 6SM -SN SCT018 BKN027 M12/M15 A2978 RMK SC3SC4 SLP096
                 =
2019-01-22 13:00 METAR CYHZ 221300Z 32016KT 6SM -SN BKN026 M12/M14 A2975 RMK SC7 SLP085 =
2019-01-22 12:16 METAR CYHZ 221216Z 32017KT 3SM -SN FEW015 OVC033 M12/M14 A2973 RMK SF1SC7 SLP079
                 =
2019-01-22 12:00 METAR CYHZ 221200Z 33017KT 12SM -SN FEW015 BKN032 BKN150 M12/M14 A2972 RMK
                 SF1SC4AC1 SLP076 =
2019-01-22 11:00 METAR CYHZ 221100Z 32009G15KT 12SM -SN FEW015 BKN030 BKN150 M12/M13 A2968 RMK
                 CF1SC4AC1 SLP063 =
2019-01-22 10:00 METAR CYHZ 221000Z 33014KT 12SM -SN BKN020 M11/M13 A2965 RMK SC5 SLP051 =
2019-01-22 09:00 METAR CYHZ 220900Z 28007KT 6SM -SN BKN030 M11/M12 A2961 RMK SC7 SLP038 =
2019-01-22 08:00 METAR CYHZ 220800Z 26013KT 15SM -SN FEW025 M11/M13 A2959 RMK SC1 SLP032 =
2019-01-22 07:00 METAR CYHZ 220700Z 26013KT 15SM SKC M10/M13 A2958 RMK SLP026 =
2019-01-22 06:00 METAR CYHZ 220600Z 26010KT 15SM SKC M10/M12 A2956 RMK SLP020 =
2019-01-22 05:00 METAR CYHZ 220500Z 28009KT 15SM FEW013 M08/M10 A2954 RMK SC2 SLP013 =
2019-01-22 04:28 METAR CYHZ 220428Z 27012KT 15SM FEW075 M08/M10 A2954 RMK AC2 SLP013 =
2019-01-22 04:00 METAR CYHZ 220400Z 27013KT 15SM -SN FEW060 BKN078 M07/M11 A2954 RMK SC1AC5
                 SLP011 =
2019-01-22 03:00 METAR CYHZ 220300Z 27007KT 15SM BKN080 M06/M10 A2951 RMK AC6 SLP002 =
2019-01-22 02:00 METAR CYHZ 220200Z 26005KT 15SM OVC050 M06/M08 A2950 RMK SC8 PRESRR SLP998 =
2019-01-22 01:00 METAR CYHZ 220100Z 31006KT 15SM OVC047 M06/M08 A2948 RMK SC8 PRESFR SLP992 =
2019-01-22 00:50 METAR CYHZ 220050Z 30007KT 15SM OVC045 M05/M07 A2950 RMK SC8 SLP997 =
2019-01-22 00:00 METAR CYHZ 220000Z 31006KT 250V320 7SM -SHSN BR SCT013 OVC030 M05/M07 A2950 RMK
                 SF3SC5 CVCTV CLD EMBD /S01/ SLP996 =
2019-01-21 23:40 METAR CYHZ 212340Z 24010KT 7SM -SHSN BR SCT013 OVC030 M05/M06 A2951 RMK SF3SC5
                 CVCTV CLD EMBD SLP001 =
2019-01-21 23:00 METAR CYHZ 212300Z 25011KT 3SM -SHSN BR OVC033 M05/M07 A2951 RMK ST8 CVCTV CLD
                 EMBD SLP001 =
2019-01-21 22:51 METAR CYHZ 212251Z 23011KT 2 1/2SM -SHSN BR OVC030 M05/M06 A2950 RMK ST8 CVCTV
                 CLD EMBD SLP998 =
2019-01-21 22:00 METAR CYHZ 212200Z 24013KT 10SM -SHSN OVC030 M04/M06 A2949 RMK SC8 CVCTV CLD
                 EMBD SLP993 =

Support USWX by starting your Amazon purchase here.